Time;durP1;ratioP1;P1;durP2;ratioP2;P2;SDS_P1;SDS_P2;PMS_P1;PMS_P2;Temp;Humidity;BMP_temperature;BMP_pressure;BME280_temperature;BME280_humidity;BME280_pressure;Samples;Min_cycle;Max_cycle;Signal;HPM_P1;HPM_P2
2023/04/02 00:00:05;;;;;;;7.97;3.00;;;4.60;99.90;;;;;;4950591;28;20419;-94
2023/04/02 00:03:30;;;;;;;;;;;;;;;;;;;;;
2023/04/02 00:06:00;;;;;;;7.68;2.63;;;4.50;99.90;;;;;;4946474;28;20420;-93
2023/04/02 00:08:47;;;;;;;9.00;2.88;;;4.60;99.90;;;;;;4950395;28;20435;-95
2023/04/02 00:11:34;;;;;;;7.60;2.75;;;4.50;99.90;;;;;;4945052;28;20790;-93
2023/04/02 00:14:36;;;;;;;6.47;2.42;;;4.40;99.90;;;;;;4948923;28;20464;-95
2023/04/02 00:17:07;;;;;;;6.43;2.78;;;4.40;99.90;;;;;;4950278;28;20423;-94
2023/04/02 00:19:45;;;;;;;9.77;2.75;;;4.70;99.90;;;;;;4950419;28;20409;-94
2023/04/02 00:22:50;;;;;;;7.10;2.40;;;4.30;99.90;;;;;;4952358;28;20416;-94
2023/04/02 00:25:34;;;;;;;6.45;2.55;;;4.40;99.90;;;;;;4963695;28;20422;-94
2023/04/02 00:28:28;;;;;;;9.25;2.50;;;4.30;99.90;;;;;;4965899;28;20927;-94
2023/04/02 00:30:57;;;;;;;7.95;2.55;;;4.30;99.90;;;;;;4968055;28;20446;-94
2023/04/02 00:33:41;;;;;;;8.70;3.10;;;4.30;99.90;;;;;;4963756;28;20943;-95
2023/04/02 00:40:15;;;;;;;7.30;2.60;;;4.00;99.90;;;;;;4879422;29;20899;-96
2023/04/02 00:42:49;;;;;;;8.53;2.20;;;3.60;99.90;;;;;;4871145;29;20439;-93
2023/04/02 00:45:49;;;;;;;7.22;2.58;;;3.70;99.90;;;;;;4873722;29;20427;-96
2023/04/02 00:49:09;;;;;;;8.55;2.40;;;3.60;99.90;;;;;;4960008;28;20410;-93
2023/04/02 00:51:52;;;;;;;6.80;2.70;;;3.40;99.90;;;;;;4959970;28;20506;-94
2023/04/02 00:54:21;;;;;;;5.72;1.98;;;3.70;99.90;;;;;;4958591;28;20418;-94
2023/04/02 00:57:00;;;;;;;7.72;2.50;;;3.30;99.90;;;;;;4961296;28;20413;-94
2023/04/02 00:59:31;;;;;;;6.57;2.72;;;3.20;99.90;;;;;;4961030;28;20410;-94
2023/04/02 01:02:25;;;;;;;7.00;2.60;;;3.10;99.90;;;;;;4967158;28;20421;-95
2023/04/02 01:04:55;;;;;;;7.68;2.20;;;3.30;99.90;;;;;;4965293;28;20411;-95
2023/04/02 01:07:43;;;;;;;6.18;2.63;;;3.10;99.90;;;;;;4958886;28;20410;-93
2023/04/02 01:10:47;;;;;;;8.63;2.45;;;2.90;99.90;;;;;;4962898;28;20415;-93
2023/04/02 01:13:20;;;;;;;5.72;2.60;;;3.30;99.90;;;;;;4958591;28;20419;-95
2023/04/02 01:16:26;;;;;;;5.88;2.20;;;2.80;99.90;;;;;;4966607;28;20948;-95
2023/04/02 01:19:25;;;;;;;7.60;2.35;;;2.70;99.90;;;;;;4963702;28;20438;-95
2023/04/02 01:22:20;;;;;;;5.55;2.25;;;2.70;99.90;;;;;;4964951;28;20414;-95
2023/04/02 01:24:57;;;;;;;6.93;2.58;;;2.70;99.90;;;;;;4965280;28;20489;-93
2023/04/02 01:27:50;;;;;;;5.47;2.40;;;2.60;99.90;;;;;;4980672;28;20415;-94
2023/04/02 01:30:17;;;;;;;5.50;2.00;;;2.60;99.90;;;;;;4960885;28;20479;-93
2023/04/02 01:32:51;;;;;;;6.97;2.05;;;2.60;99.90;;;;;;4963085;28;20960;-94
2023/04/02 01:35:20;;;;;;;6.67;2.20;;;2.50;99.90;;;;;;4959422;28;20433;-94
2023/04/02 01:38:12;;;;;;;4.63;1.85;;;2.80;99.90;;;;;;4965378;28;20452;-94
2023/04/02 01:41:27;;;;;;;5.00;2.10;;;2.40;99.90;;;;;;4968424;28;20440;-94
2023/04/02 01:44:00;;;;;;;5.85;2.03;;;2.40;99.90;;;;;;4934435;28;20465;-94
2023/04/02 01:46:31;;;;;;;5.82;2.50;;;2.60;99.90;;;;;;4966107;28;20407;-91
2023/04/02 01:49:21;;;;;;;6.05;1.90;;;2.30;99.90;;;;;;4960506;28;20429;-94
2023/04/02 01:51:55;;;;;;;4.00;1.92;;;2.20;99.90;;;;;;4964409;28;20425;-94
2023/04/02 01:54:27;;;;;;;5.30;2.10;;;2.20;99.90;;;;;;4959542;28;20803;-95
2023/04/02 01:56:54;;;;;;;6.15;2.00;;;1.90;99.90;;;;;;4968572;28;20419;-94
2023/04/02 01:59:39;;;;;;;6.05;2.20;;;2.10;99.90;;;;;;4965746;28;20466;-95
2023/04/02 02:02:10;;;;;;;8.63;2.10;;;2.10;99.90;;;;;;4962927;28;20418;-94
2023/04/02 02:04:43;;;;;;;5.85;1.90;;;2.00;99.90;;;;;;4963271;28;20402;-93
2023/04/02 02:07:50;;;;;;;5.30;1.60;;;2.10;99.90;;;;;;4959038;28;20407;-95
2023/04/02 02:10:58;;;;;;;4.40;1.73;;;2.10;99.90;;;;;;4922448;28;20787;-95
2023/04/02 02:13:45;;;;;;;6.55;1.50;;;2.00;99.90;;;;;;4960396;28;20480;-93
2023/04/02 02:19:49;;;;;;;6.88;1.88;;;1.90;99.90;;;;;;4904160;29;20410;-94
2023/04/02 02:22:40;;;;;;;6.57;1.40;;;1.90;99.90;;;;;;4940250;29;21030;-94
2023/04/02 02:25:15;;;;;;;5.03;1.80;;;1.90;99.90;;;;;;4940776;29;20426;-94
2023/04/02 02:28:34;;;;;;;4.68;1.50;;;1.80;99.90;;;;;;4927393;29;20492;-94
2023/04/02 02:31:11;;;;;;;5.45;1.45;;;1.90;99.90;;;;;;4930155;29;20418;-95
2023/04/02 02:34:11;;;;;;;6.63;1.40;;;1.90;99.90;;;;;;4925330;29;20432;-95
2023/04/02 02:36:56;;;;;;;6.03;1.63;;;1.70;99.90;;;;;;4924007;29;20437;-93
2023/04/02 02:39:59;;;;;;;4.88;1.65;;;1.70;99.90;;;;;;4941772;29;20468;-94
2023/04/02 02:42:33;;;;;;;4.57;1.10;;;1.60;99.90;;;;;;4937508;29;20430;-94
2023/04/02 02:45:11;;;;;;;3.90;1.00;;;1.80;99.90;;;;;;4923999;29;20654;-94
2023/04/02 02:47:41;;;;;;;5.47;1.30;;;1.60;99.90;;;;;;4928043;29;20425;-94
2023/04/02 02:50:30;;;;;;;5.55;1.52;;;1.70;99.90;;;;;;4930839;29;20418;-94
2023/04/02 02:53:02;;;;;;;8.02;1.67;;;1.50;99.90;;;;;;4951828;28;20488;-92
2023/04/02 02:55:35;;;;;;;3.87;1.20;;;1.60;99.90;;;;;;4963011;28;20434;-93
2023/04/02 02:58:16;;;;;;;5.00;1.08;;;1.60;99.90;;;;;;4965058;28;20449;-94
2023/04/02 03:01:02;;;;;;;5.07;1.25;;;1.40;99.90;;;;;;4950187;28;20411;-94
2023/04/02 03:03:56;;;;;;;5.10;1.25;;;1.40;99.90;;;;;;4962568;28;20414;-93
2023/04/02 03:06:45;;;;;;;4.78;1.00;;;1.20;99.90;;;;;;4963981;28;20465;-94
2023/04/02 03:09:40;;;;;;;5.63;1.27;;;1.40;99.90;;;;;;4933273;28;20407;-95
2023/04/02 03:12:43;;;;;;;5.47;1.00;;;1.30;99.90;;;;;;4959923;28;20430;-94
2023/04/02 03:15:21;;;;;;;3.78;1.30;;;1.30;99.90;;;;;;4964055;28;20426;-92
2023/04/02 03:17:50;;;;;;;6.32;1.40;;;1.30;99.90;;;;;;4958606;28;20860;-94
2023/04/02 03:20:48;;;;;;;3.55;0.90;;;1.40;99.90;;;;;;4963523;28;20798;-94
2023/04/02 03:23:28;;;;;;;5.05;1.10;;;1.20;99.90;;;;;;4962739;28;20423;-95
2023/04/02 03:26:13;;;;;;;6.32;1.50;;;1.30;99.90;;;;;;4968467;28;20425;-94
2023/04/02 03:29:08;;;;;;;5.72;1.08;;;1.20;99.90;;;;;;4961194;28;20420;-94
2023/04/02 03:31:40;;;;;;;6.13;1.30;;;1.20;99.90;;;;;;4955618;28;20542;-91
2023/04/02 03:34:24;;;;;;;6.43;0.90;;;1.20;99.90;;;;;;4963231;28;20410;-92
2023/04/02 03:43:17;;;;;;;6.17;1.30;;;1.10;99.90;;;;;;4979619;28;20422;-95
2023/04/02 03:45:50;;;;;;;4.00;0.90;;;1.10;99.90;;;;;;4968613;28;20414;-94
2023/04/02 03:49:16;;;;;;;8.00;1.30;;;1.20;99.90;;;;;;4946326;28;20429;-93
2023/04/02 03:52:09;;;;;;;7.28;1.15;;;1.00;99.90;;;;;;4891275;28;20419;-95
2023/04/02 03:54:44;;;;;;;7.07;1.20;;;1.10;99.90;;;;;;4968549;28;20434;-96
2023/04/02 03:58:05;;;;;;;5.43;1.13;;;1.00;99.90;;;;;;4948991;28;20489;-93
2023/04/02 04:00:43;;;;;;;7.47;1.20;;;1.00;99.90;;;;;;4899195;28;20426;-95
2023/04/02 04:03:17;;;;;;;7.88;1.40;;;1.00;99.90;;;;;;4962132;28;20433;-94
2023/04/02 04:06:04;;;;;;;5.88;0.93;;;1.00;99.90;;;;;;4962715;28;20955;-94
2023/04/02 04:08:58;;;;;;;8.60;1.27;;;1.00;99.90;;;;;;4964320;28;20463;-96
2023/04/02 04:11:30;;;;;;;6.00;1.17;;;1.20;99.90;;;;;;4961929;28;20427;-96
2023/04/02 04:14:22;;;;;;;7.95;1.27;;;1.40;99.90;;;;;;4956437;28;20418;-95
2023/04/02 04:17:00;;;;;;;5.72;1.10;;;1.30;99.90;;;;;;4960357;28;20430;-94
2023/04/02 04:19:38;;;;;;;6.47;1.00;;;0.90;99.90;;;;;;4955838;28;20449;-94
2023/04/02 04:22:32;;;;;;;5.30;1.52;;;0.80;99.90;;;;;;4960737;28;20501;-95
2023/04/02 04:25:02;;;;;;;7.65;1.50;;;0.80;99.90;;;;;;4959250;28;20454;-94
2023/04/02 04:28:06;;;;;;;7.43;1.35;;;0.80;99.90;;;;;;4955005;28;20414;-95
2023/04/02 04:30:50;;;;;;;6.30;1.33;;;0.80;99.90;;;;;;4960155;28;20940;-93
2023/04/02 04:33:22;;;;;;;7.20;1.13;;;0.90;99.90;;;;;;4963237;28;20484;-94
2023/04/02 04:36:46;;;;;;;6.05;1.15;;;0.80;99.90;;;;;;4963890;28;20445;-96
2023/04/02 04:39:17;;;;;;;5.32;0.80;;;0.70;99.90;;;;;;4866606;29;20442;-94
2023/04/02 04:41:45;;;;;;;5.78;0.90;;;0.70;99.90;;;;;;4866806;29;20411;-92
2023/04/02 04:44:16;;;;;;;8.13;1.35;;;0.80;99.90;;;;;;4949385;28;20548;-95
2023/04/02 04:47:08;;;;;;;5.38;0.70;;;0.70;99.90;;;;;;4962660;28;20423;-95
2023/04/02 04:50:17;;;;;;;4.70;0.90;;;0.70;99.90;;;;;;4948379;28;20502;-94
2023/04/02 04:53:05;;;;;;;6.28;0.80;;;0.70;99.90;;;;;;4868038;29;20427;-96
2023/04/02 04:56:11;;;;;;;6.10;0.88;;;0.70;99.90;;;;;;4963833;28;20975;-95
2023/04/02 04:58:48;;;;;;;3.88;0.70;;;0.70;99.90;;;;;;4957094;28;20417;-93
2023/04/02 05:01:50;;;;;;;6.45;1.15;;;0.70;99.90;;;;;;4961000;28;20430;-95
2023/04/02 05:04:35;;;;;;;6.60;1.02;;;0.70;99.90;;;;;;4963709;28;20522;-94
2023/04/02 05:07:27;;;;;;;4.78;0.60;;;0.70;99.90;;;;;;4967873;28;20406;-94
2023/04/02 05:10:27;;;;;;;5.25;0.70;;;0.70;99.90;;;;;;4964135;28;20425;-96
2023/04/02 05:13:17;;;;;;;6.10;0.70;;;0.70;99.90;;;;;;4963269;28;21007;-95
2023/04/02 05:16:21;;;;;;;7.10;0.70;;;0.70;99.90;;;;;;4960532;28;20434;-94
2023/04/02 05:19:12;;;;;;;5.10;1.05;;;0.80;99.90;;;;;;4961351;28;20422;-95
2023/04/02 05:22:16;;;;;;;8.75;0.90;;;0.80;99.90;;;;;;4962707;28;20394;-94
2023/04/02 05:25:19;;;;;;;5.85;0.80;;;0.80;99.90;;;;;;4958284;28;20457;-94
2023/04/02 05:28:17;;;;;;;6.25;0.90;;;0.90;99.90;;;;;;4955233;28;20415;-94
2023/04/02 05:31:00;;;;;;;5.20;0.60;;;0.90;99.90;;;;;;4961588;28;20486;-92
2023/04/02 05:33:32;;;;;;;5.05;0.80;;;0.90;99.90;;;;;;4960146;28;20430;-93
2023/04/02 05:36:31;;;;;;;6.47;0.93;;;1.00;99.90;;;;;;4958145;28;20449;-94
2023/04/02 05:38:58;;;;;;;4.38;0.70;;;1.10;99.90;;;;;;4958458;28;20418;-94
2023/04/02 05:41:46;;;;;;;4.65;0.95;;;1.10;99.90;;;;;;4955159;28;20473;-94
2023/04/02 05:44:20;;;;;;;5.88;1.00;;;1.10;99.90;;;;;;4960774;28;20794;-95
2023/04/02 05:46:58;;;;;;;6.30;0.73;;;1.40;99.90;;;;;;4960045;28;20410;-95
2023/04/02 05:50:02;;;;;;;5.63;0.75;;;1.30;99.90;;;;;;4961425;28;20445;-96
2023/04/02 05:52:43;;;;;;;6.13;1.00;;;1.40;99.90;;;;;;4965429;28;20469;-93
2023/04/02 05:55:34;;;;;;;4.93;1.00;;;1.70;99.90;;;;;;4964338;28;20435;-94
2023/04/02 05:58:51;;;;;;;3.50;0.57;;;1.40;99.90;;;;;;4959778;28;20450;-93
2023/04/02 06:01:37;;;;;;;4.03;0.70;;;1.40;99.90;;;;;;4941867;28;20419;-94
2023/04/02 06:05:05;;;;;;;5.85;1.17;;;1.60;99.90;;;;;;4965578;28;20418;-95
2023/04/02 06:08:03;;;;;;;5.60;0.82;;;1.80;99.90;;;;;;4884826;29;20915;-95
2023/04/02 06:11:09;;;;;;;5.73;0.70;;;1.90;99.90;;;;;;4889262;29;20446;-94
2023/04/02 06:14:02;;;;;;;7.05;0.93;;;2.00;99.90;;;;;;4869845;29;20478;-94
2023/04/02 06:16:35;;;;;;;6.60;0.90;;;2.40;99.90;;;;;;4871143;29;20438;-95
2023/04/02 06:19:04;;;;;;;6.55;0.90;;;2.20;99.90;;;;;;4885786;29;20434;-94
2023/04/02 06:21:42;;;;;;;6.05;1.10;;;2.30;99.90;;;;;;4903953;28;20490;-95
2023/04/02 06:24:12;;;;;;;5.25;0.88;;;2.60;99.90;;;;;;4960732;28;20411;-95
2023/04/02 06:26:42;;;;;;;6.88;0.70;;;2.60;99.90;;;;;;4964306;28;20410;-94
2023/04/02 06:29:54;;;;;;;3.90;0.65;;;3.00;99.90;;;;;;4969990;28;20437;-96
2023/04/02 06:32:24;;;;;;;5.28;0.68;;;2.60;99.90;;;;;;4868318;29;20491;-95
2023/04/02 06:34:53;;;;;;;6.97;0.80;;;2.80;99.90;;;;;;4885864;29;20457;-94
2023/04/02 06:38:18;;;;;;;5.85;0.77;;;2.80;99.90;;;;;;4888391;29;20419;-93
2023/04/02 06:41:24;;;;;;;3.88;0.50;;;2.90;99.90;;;;;;4824896;29;20420;-95
2023/04/02 06:44:43;;;;;;;3.80;0.45;;;2.90;99.90;;;;;;4832943;29;20473;-96
2023/04/02 06:47:46;;;;;;;5.60;0.77;;;3.00;99.90;;;;;;4837560;29;20452;-94
2023/04/02 06:50:51;;;;;;;4.70;0.90;;;3.00;99.90;;;;;;4853558;29;20472;-94
2023/04/02 06:53:50;;;;;;;4.13;0.50;;;3.10;99.90;;;;;;4854870;29;20433;-96
2023/04/02 06:56:44;;;;;;;5.95;0.77;;;3.50;99.90;;;;;;4857320;29;20452;-96
2023/04/02 06:59:22;;;;;;;4.30;0.60;;;3.20;99.90;;;;;;4860848;29;20413;-95
2023/04/02 07:02:46;;;;;;;5.60;0.60;;;3.30;99.90;;;;;;4855128;29;20432;-95
2023/04/02 07:05:19;;;;;;;5.07;0.53;;;3.30;99.90;;;;;;4910174;29;20537;-95
2023/04/02 07:07:57;;;;;;;4.90;0.70;;;4.20;99.90;;;;;;4891837;29;20421;-95
2023/04/02 07:11:03;;;;;;;5.07;0.75;;;3.40;99.90;;;;;;4894968;29;21078;-95
2023/04/02 07:13:50;;;;;;;3.40;0.50;;;3.50;99.90;;;;;;4911290;29;20465;-96
2023/04/02 07:16:44;;;;;;;4.35;0.50;;;3.60;99.90;;;;;;4896964;28;20421;-96
2023/04/02 07:19:37;;;;;;;3.47;0.60;;;3.70;99.90;;;;;;4953511;28;20915;-95
2023/04/02 07:22:03;;;;;;;3.90;0.40;;;3.90;99.90;;;;;;4940902;28;20420;-94
2023/04/02 07:24:46;;;;;;;3.73;0.70;;;4.10;99.90;;;;;;4939583;28;20440;-95
2023/04/02 07:27:18;;;;;;;4.07;1.00;;;4.20;99.90;;;;;;4944018;28;20416;-95
2023/04/02 07:29:53;;;;;;;3.67;0.32;;;4.40;99.90;;;;;;4942076;28;20436;-94
2023/04/02 07:32:25;;;;;;;3.97;0.40;;;5.00;99.90;;;;;;4943306;28;20484;-96
2023/04/02 07:34:50;;;;;;;4.68;0.40;;;5.20;99.90;;;;;;4923367;29;20496;-95
2023/04/02 07:40:42;;;;;;;4.40;0.60;;;5.00;99.90;;;;;;4925543;29;20421;-95
2023/04/02 07:43:08;;;;;;;4.68;0.50;;;4.80;99.90;;;;;;4909310;29;20453;-95
2023/04/02 07:45:34;;;;;;;5.00;0.47;;;5.90;99.90;;;;;;4907181;29;20438;-96
2023/04/02 07:48:26;;;;;;;3.70;0.30;;;5.30;99.90;;;;;;4909718;29;20432;-94
2023/04/02 07:51:26;;;;;;;4.57;0.52;;;4.90;99.90;;;;;;4896437;29;20488;-95
2023/04/02 07:53:54;;;;;;;5.67;0.40;;;5.10;99.90;;;;;;4913841;29;20836;-94
2023/04/02 07:56:26;;;;;;;3.83;0.60;;;5.20;99.90;;;;;;4896225;29;20475;-93
2023/04/02 07:59:16;;;;;;;5.57;0.43;;;5.70;99.90;;;;;;4916451;29;20408;-96
2023/04/02 08:05:15;;;;;;;3.45;0.63;;;5.70;99.90;;;;;;4913850;29;20473;-96
2023/04/02 08:08:12;;;;;;;3.47;0.40;;;5.70;99.90;;;;;;4916797;29;20415;-95
2023/04/02 08:11:33;;;;;;;2.42;0.43;;;5.90;99.90;;;;;;4924442;28;20427;-96
2023/04/02 08:14:36;;;;;;;4.82;0.55;;;6.00;99.90;;;;;;4877880;29;21041;-94
2023/04/02 08:17:17;;;;;;;2.67;0.30;;;6.30;99.90;;;;;;4833563;28;20432;-94
2023/04/02 08:20:14;;;;;;;;;;;;;;;;;;;;;
2023/04/02 08:26:21;;;;;;;2.83;0.30;;;6.50;99.20;;;;;;4941632;28;20412;-95
2023/04/02 08:32:29;;;;;;;2.88;0.57;;;7.50;98.20;;;;;;4971870;28;20982;-95
2023/04/02 08:35:30;;;;;;;3.00;0.40;;;6.90;95.00;;;;;;4959684;28;20432;-95
2023/04/02 08:38:00;;;;;;;7.57;0.50;;;7.10;95.80;;;;;;4859090;29;20903;-94
2023/04/02 08:41:26;;;;;;;3.47;0.30;;;7.20;95.70;;;;;;4879608;29;20478;-95
2023/04/02 08:47:46;;;;;;;3.63;0.30;;;6.90;93.20;;;;;;4971844;28;20420;-94
2023/04/02 08:50:44;;;;;;;3.60;0.40;;;6.80;95.90;;;;;;4924227;28;20443;-96
2023/04/02 08:53:36;;;;;;;2.80;0.47;;;7.00;97.90;;;;;;4960790;28;20447;-96
2023/04/02 08:56:45;;;;;;;4.38;0.55;;;7.20;99.90;;;;;;4954994;28;20486;-95
2023/04/02 08:59:51;;;;;;;;;;;;;;;;;;;;;
2023/04/02 09:02:42;;;;;;;2.83;0.30;;;7.60;96.70;;;;;;4969968;28;20396;-95
2023/04/02 09:05:46;;;;;;;3.08;0.40;;;7.60;94.40;;;;;;4915247;29;20466;-94
2023/04/02 09:08:23;;;;;;;2.95;0.40;;;7.90;99.10;;;;;;4908752;29;20444;-96
2023/04/02 09:11:20;;;;;;;3.72;0.30;;;8.00;97.50;;;;;;4912377;29;20445;-95
2023/04/02 09:14:11;;;;;;;3.08;0.30;;;8.10;96.90;;;;;;4910268;29;20422;-94
2023/04/02 09:16:57;;;;;;;4.27;0.47;;;8.70;91.10;;;;;;4910348;29;20441;-96
2023/04/02 09:20:11;;;;;;;3.85;0.32;;;8.40;87.40;;;;;;4870046;29;20405;-95
2023/04/02 09:23:22;;;;;;;3.63;0.40;;;7.70;90.00;;;;;;4886848;29;20413;-95
2023/04/02 09:25:52;;;;;;;2.65;0.30;;;7.70;91.80;;;;;;4966246;28;20452;-95
2023/04/02 09:28:29;;;;;;;2.45;0.50;;;7.90;99.30;;;;;;4946726;28;20428;-95
2023/04/02 09:31:09;;;;;;;1.80;0.43;;;8.10;95.60;;;;;;4950509;28;20408;-95
2023/04/02 09:34:19;;;;;;;3.30;0.50;;;8.10;91.10;;;;;;4951978;28;20412;-95
2023/04/02 09:37:15;;;;;;;2.88;0.40;;;8.00;90.30;;;;;;4857852;29;20447;-95
2023/04/02 09:40:11;;;;;;;2.38;0.30;;;8.40;94.10;;;;;;4867979;29;20435;-94
2023/04/02 09:42:40;;;;;;;2.03;0.28;;;8.10;91.80;;;;;;4873660;29;20418;-95
2023/04/02 09:45:52;;;;;;;3.58;0.40;;;8.50;93.20;;;;;;4873860;29;20416;-96
2023/04/02 09:48:31;;;;;;;3.85;0.40;;;8.70;90.50;;;;;;4861027;29;20436;-95
2023/04/02 09:51:14;;;;;;;3.33;0.40;;;9.00;83.30;;;;;;4890370;29;20442;-95
2023/04/02 09:54:32;;;;;;;2.90;0.40;;;8.80;85.60;;;;;;4886519;29;20478;-96
2023/04/02 09:57:32;;;;;;;2.22;0.30;;;8.70;89.40;;;;;;4888390;29;20455;-94
2023/04/02 10:00:40;;;;;;;2.42;0.30;;;9.30;86.20;;;;;;4888693;29;20890;-94
2023/04/02 10:03:33;;;;;;;3.05;0.20;;;9.50;85.70;;;;;;4890340;29;20419;-95
2023/04/02 10:06:32;;;;;;;3.17;0.30;;;9.90;75.90;;;;;;4871787;29;20486;-94
2023/04/02 10:09:36;;;;;;;3.65;0.50;;;10.10;78.70;;;;;;4874501;29;20426;-96
2023/04/02 10:12:46;;;;;;;;;;;;;;;;;;;;;
2023/04/02 10:16:06;;;;;;;2.13;0.35;;;10.90;71.00;;;;;;4969348;28;20467;-96
2023/04/02 10:19:13;;;;;;;;;;;;;;;;;;;;;
2023/04/02 10:22:31;;;;;;;2.47;0.20;;;12.10;61.90;;;;;;4885099;29;20422;-94
2023/04/02 10:25:52;;;;;;;1.98;0.30;;;12.50;60.40;;;;;;5089522;23;20470;-95
2023/04/02 10:29:15;;;;;;;2.42;0.28;;;12.90;57.00;;;;;;4972076;28;20538;-95
2023/04/02 10:32:04;;;;;;;2.63;0.30;;;13.30;57.20;;;;;;4876490;29;20415;-96
2023/04/02 10:35:18;;;;;;;1.65;0.30;;;13.90;58.00;;;;;;4886526;29;20780;-96
2023/04/02 10:37:57;;;;;;;1.52;0.20;;;14.20;56.40;;;;;;4894972;29;20439;-96
2023/04/02 10:53:05;;;;;;;1.95;0.25;;;15.00;51.00;;;;;;4988856;28;20429;-96
2023/04/02 10:55:42;;;;;;;2.20;0.20;;;15.20;52.50;;;;;;4887234;29;20452;-94
2023/04/02 10:58:54;;;;;;;2.03;0.20;;;15.30;51.10;;;;;;4910910;29;20444;-96
2023/04/02 11:01:50;;;;;;;2.40;0.20;;;15.20;51.00;;;;;;4952349;28;20415;-96
2023/04/02 11:05:05;;;;;;;2.03;0.20;;;15.20;52.40;;;;;;4990567;28;20494;-96
2023/04/02 11:08:32;;;;;;;;;;;;;;;;;;;;;
2023/04/02 11:11:39;;;;;;;2.10;0.30;;;15.50;50.10;;;;;;4994711;28;20406;-96
2023/04/02 11:14:35;;;;;;;1.63;0.20;;;15.50;51.90;;;;;;4895559;28;20449;-95
2023/04/02 11:17:12;;;;;;;2.85;0.30;;;15.60;51.60;;;;;;4940194;28;20427;-95
2023/04/02 11:19:42;;;;;;;2.10;0.20;;;15.50;50.50;;;;;;4963610;28;20489;-93
2023/04/02 11:22:58;;;;;;;2.70;0.20;;;15.70;52.10;;;;;;4985046;28;20458;-95
2023/04/02 11:25:46;;;;;;;2.33;0.20;;;15.40;51.30;;;;;;4988380;28;20921;-95
2023/04/02 11:28:54;;;;;;;2.30;0.22;;;15.50;51.80;;;;;;4968935;28;21032;-96
2023/04/02 11:31:48;;;;;;;3.17;0.20;;;15.80;53.30;;;;;;4893089;29;20425;-96
2023/04/02 11:34:48;;;;;;;3.33;0.20;;;15.90;50.50;;;;;;4969911;28;20419;-96
2023/04/02 11:37:43;;;;;;;1.77;0.30;;;16.00;51.90;;;;;;4984040;28;20416;-96
2023/04/02 11:40:43;;;;;;;2.80;0.30;;;16.10;50.80;;;;;;4973832;28;20418;-95
2023/04/02 11:43:31;;;;;;;1.90;0.30;;;16.00;50.00;;;;;;4990352;28;20440;-95
2023/04/02 11:46:30;;;;;;;2.28;0.28;;;15.90;49.10;;;;;;4989225;28;20516;-96
2023/04/02 11:49:53;;;;;;;;;;;;;;;;;;;;;
2023/04/02 11:52:47;;;;;;;2.65;0.30;;;15.90;52.30;;;;;;4992213;28;20407;-96
2023/04/02 11:56:18;;;;;;;;;;;;;;;;;;;;;
2023/04/02 11:59:31;;;;;;;1.88;0.20;;;16.60;50.80;;;;;;4960819;28;20407;-96
2023/04/02 12:06:01;;;;;;;2.17;0.20;;;16.60;48.30;;;;;;4959943;28;20550;-96
2023/04/02 12:09:26;;;;;;;3.55;0.25;;;16.50;49.90;;;;;;4968347;28;20446;-96
2023/04/02 12:12:37;;;;;;;1.77;0.20;;;16.90;50.20;;;;;;4972845;28;20917;-95
2023/04/02 12:15:38;;;;;;;2.50;0.20;;;17.10;46.50;;;;;;4966789;28;20471;-96
2023/04/02 12:18:14;;;;;;;1.70;0.20;;;17.20;48.10;;;;;;4929155;28;21145;-95
2023/04/02 12:20:56;;;;;;;1.58;0.20;;;17.40;48.40;;;;;;4946025;28;20581;-96
2023/04/02 12:23:38;;;;;;;1.88;0.20;;;17.20;45.80;;;;;;4947191;28;20424;-94
2023/04/02 12:26:13;;;;;;;2.00;0.20;;;16.90;45.50;;;;;;4944063;28;20412;-92
2023/04/02 12:28:45;;;;;;;2.30;0.20;;;17.00;45.50;;;;;;4943963;28;20423;-95
2023/04/02 12:31:24;;;;;;;2.78;0.20;;;17.00;44.90;;;;;;4957083;28;21057;-95
2023/04/02 12:34:54;;;;;;;2.88;0.30;;;17.20;47.70;;;;;;4957913;28;20443;-95
2023/04/02 12:37:04;;;;;;;2.73;0.20;;;17.10;46.20;;;;;;4945423;28;20442;-95
2023/04/02 12:40:07;;;;;;;1.98;0.20;;;17.30;48.00;;;;;;4944024;28;20447;-95
2023/04/02 12:42:48;;;;;;;1.90;0.30;;;17.50;47.00;;;;;;4940876;28;20871;-96
2023/04/02 12:48:40;;;;;;;1.67;0.20;;;17.80;45.40;;;;;;4899829;29;20432;-95
2023/04/02 12:51:11;;;;;;;2.35;0.20;;;18.10;45.00;;;;;;4938819;28;20495;-95
2023/04/02 12:53:40;;;;;;;2.30;0.20;;;18.30;45.00;;;;;;4941594;28;20415;-95
2023/04/02 12:56:23;;;;;;;1.42;0.20;;;18.20;44.90;;;;;;4944082;28;20427;-94
2023/04/02 12:59:27;;;;;;;;;;;;;;;;;;;;;
2023/04/02 13:01:58;;;;;;;2.00;0.32;;;18.30;45.80;;;;;;4957435;28;20408;-95
2023/04/02 13:04:25;;;;;;;3.00;0.60;;;18.60;44.40;;;;;;4941530;28;20503;-96
2023/04/02 13:07:00;;;;;;;2.17;0.30;;;18.70;45.20;;;;;;4944070;28;20404;-94
2023/04/02 13:09:44;;;;;;;2.70;0.30;;;18.90;42.30;;;;;;4942502;28;20746;-95
2023/04/02 13:12:34;;;;;;;2.30;0.30;;;19.20;42.30;;;;;;4942140;28;20728;-96
2023/04/02 13:15:03;;;;;;;2.90;0.20;;;19.40;43.20;;;;;;4942452;28;20447;-94
2023/04/02 13:17:45;;;;;;;2.13;0.20;;;19.40;42.40;;;;;;4942512;28;20422;-95
2023/04/02 13:20:32;;;;;;;2.10;0.40;;;19.30;42.10;;;;;;4942956;28;20424;-95
2023/04/02 13:23:00;;;;;;;1.23;0.20;;;19.60;41.00;;;;;;4938853;28;20759;-94
2023/04/02 13:25:37;;;;;;;1.97;0.30;;;19.30;42.60;;;;;;4940872;28;20439;-95
2023/04/02 13:28:02;;;;;;;1.55;0.28;;;19.00;41.50;;;;;;4940970;28;20417;-94
2023/04/02 13:30:28;;;;;;;1.77;0.20;;;18.80;41.90;;;;;;4941535;28;20435;-94
2023/04/02 13:32:59;;;;;;;2.80;0.30;;;18.70;40.80;;;;;;4941705;28;20439;-95
2023/04/02 13:35:25;;;;;;;1.55;0.20;;;18.50;43.20;;;;;;4940209;28;20436;-95
2023/04/02 13:38:01;;;;;;;1.80;0.32;;;18.60;43.90;;;;;;4956367;28;20423;-95
2023/04/02 13:40:32;;;;;;;2.57;0.27;;;18.30;42.90;;;;;;4941491;28;20423;-96
2023/04/02 13:43:04;;;;;;;1.58;0.30;;;18.20;42.60;;;;;;4924467;28;20463;-95
2023/04/02 13:45:32;;;;;;;2.67;0.20;;;17.90;43.40;;;;;;4938939;28;20444;-96
2023/04/02 13:47:59;;;;;;;1.83;0.20;;;17.60;44.30;;;;;;4951407;28;20419;-95
2023/04/02 13:50:28;;;;;;;2.25;0.20;;;17.30;47.60;;;;;;4973406;28;20445;-94
2023/04/02 13:53:02;;;;;;;1.27;0.30;;;17.30;44.90;;;;;;4958615;28;20864;-95
2023/04/02 13:55:35;;;;;;;2.13;0.15;;;16.90;44.40;;;;;;4957370;28;20481;-93
2023/04/02 13:58:04;;;;;;;1.73;0.20;;;16.80;44.20;;;;;;4957043;28;20407;-94
2023/04/02 14:00:30;;;;;;;1.27;0.20;;;16.50;45.70;;;;;;4957379;28;20415;-95
2023/04/02 14:03:10;;;;;;;1.58;0.22;;;16.70;46.30;;;;;;4955766;28;20413;-94
2023/04/02 14:05:59;;;;;;;1.70;0.30;;;15.80;46.30;;;;;;4956347;28;20485;-94
2023/04/02 14:08:48;;;;;;;2.17;0.20;;;15.90;47.20;;;;;;4956608;28;20414;-95
2023/04/02 14:11:33;;;;;;;1.80;0.30;;;15.40;46.30;;;;;;4956755;28;20410;-94
2023/04/02 14:14:11;;;;;;;1.92;0.20;;;15.50;49.80;;;;;;4972348;28;20442;-95
2023/04/02 14:16:45;;;;;;;1.92;0.20;;;15.70;47.50;;;;;;4971860;28;20952;-95
2023/04/02 14:19:26;;;;;;;1.23;0.20;;;16.00;49.40;;;;;;4973100;28;20524;-95
2023/04/02 14:22:07;;;;;;;1.92;0.20;;;16.30;47.90;;;;;;4972696;28;20795;-93
2023/04/02 14:24:44;;;;;;;2.08;0.20;;;17.10;46.00;;;;;;4956529;28;20490;-93
2023/04/02 14:27:30;;;;;;;1.60;0.20;;;17.40;44.00;;;;;;4972703;28;20781;-94
2023/04/02 14:30:11;;;;;;;1.60;0.20;;;18.70;42.30;;;;;;4916608;28;20477;-95
2023/04/02 14:32:55;;;;;;;1.50;0.30;;;19.20;40.90;;;;;;4971764;28;20411;-95
2023/04/02 14:35:45;;;;;;;1.23;0.20;;;19.60;41.70;;;;;;4972254;28;20431;-95
2023/04/02 14:38:19;;;;;;;1.65;0.20;;;18.70;39.90;;;;;;4955603;28;20596;-95
2023/04/02 14:40:58;;;;;;;2.17;0.30;;;17.60;41.50;;;;;;4973126;28;20415;-93
2023/04/02 14:43:42;;;;;;;2.25;0.30;;;16.60;44.20;;;;;;4956113;28;20426;-95
2023/04/02 14:46:11;;;;;;;3.00;0.30;;;16.00;45.60;;;;;;4954530;28;20407;-95
2023/04/02 14:48:57;;;;;;;2.00;0.30;;;15.50;47.30;;;;;;4954204;28;20421;-94
2023/04/02 14:51:42;;;;;;;3.25;0.40;;;15.30;48.50;;;;;;4954636;28;20472;-94
2023/04/02 14:54:30;;;;;;;3.97;0.30;;;14.70;47.60;;;;;;4954984;28;20416;-95
2023/04/02 14:57:20;;;;;;;1.92;0.30;;;14.30;49.10;;;;;;4956374;28;20497;-94
2023/04/02 15:00:04;;;;;;;2.35;0.40;;;13.40;51.40;;;;;;4970397;28;20419;-94
2023/04/02 15:02:35;;;;;;;2.70;0.90;;;13.10;53.00;;;;;;4970483;28;20833;-93
2023/04/02 15:05:20;;;;;;;1.63;0.30;;;13.00;54.00;;;;;;4970049;28;20414;-95
2023/04/02 15:08:11;;;;;;;2.83;0.20;;;12.80;53.70;;;;;;4954261;28;20421;-94
2023/04/02 15:10:46;;;;;;;3.10;0.50;;;12.50;53.80;;;;;;4954082;28;20818;-94
2023/04/02 15:13:20;;;;;;;2.30;0.40;;;12.50;53.90;;;;;;4953553;28;20470;-95
2023/04/02 15:15:56;;;;;;;1.92;0.22;;;12.00;53.30;;;;;;4957269;28;20426;-94
2023/04/02 15:18:24;;;;;;;2.50;0.60;;;11.90;53.60;;;;;;4953957;28;20420;-95
2023/04/02 15:21:35;;;;;;;3.47;0.30;;;11.60;54.00;;;;;;4954026;28;20434;-94
2023/04/02 15:24:10;;;;;;;2.77;0.30;;;11.60;55.20;;;;;;4970531;28;20437;-95
2023/04/02 15:26:45;;;;;;;5.45;1.67;;;11.90;55.20;;;;;;4970409;28;20414;-95
2023/04/02 15:29:48;;;;;;;4.22;1.25;;;11.40;54.40;;;;;;4954194;28;20418;-94
2023/04/02 15:32:40;;;;;;;4.93;1.58;;;11.30;54.90;;;;;;4970384;28;20965;-93
2023/04/02 15:35:27;;;;;;;3.33;0.60;;;11.30;56.10;;;;;;4953166;28;20488;-94
2023/04/02 15:38:06;;;;;;;2.45;0.32;;;10.90;55.60;;;;;;4953677;28;20935;-93
2023/04/02 15:41:02;;;;;;;1.40;0.20;;;10.60;55.80;;;;;;4970464;28;20415;-92